createdAt,value
2022-11-20T00:01:38.324Z,6.82
2022-11-20T00:04:06.549Z,7.80
2022-11-20T00:06:34.570Z,6.53
2022-11-20T00:09:02.927Z,7.30
2022-11-20T00:11:32.768Z,6.97
2022-11-20T00:14:03.178Z,7.03
2022-11-20T00:16:34.758Z,7.82
2022-11-20T00:19:02.876Z,6.97
2022-11-20T00:21:31.787Z,6.13
2022-11-20T00:24:00.302Z,6.10
2022-11-20T00:26:29.771Z,6.22
2022-11-20T00:29:00.510Z,6.40
2022-11-20T00:31:30.023Z,6.63
2022-11-20T00:33:58.857Z,6.43
2022-11-20T00:36:29.439Z,6.40
2022-11-20T00:38:59.912Z,6.28
2022-11-20T00:41:30.298Z,5.85
2022-11-20T00:43:59.078Z,6.82
2022-11-20T00:46:29.203Z,6.70
2022-11-20T00:48:58.295Z,6.22
2022-11-20T00:51:27.987Z,6.22
2022-11-20T00:53:58.282Z,6.13
2022-11-20T00:56:26.611Z,4.95
2022-11-20T00:58:55.569Z,6.25
2022-11-20T01:01:26.615Z,6.38
2022-11-20T01:03:58.337Z,6.18
2022-11-20T01:06:28.100Z,6.20
2022-11-20T01:08:59.557Z,5.57
2022-11-20T01:11:36.317Z,5.68
2022-11-20T01:14:08.048Z,6.18
2022-11-20T01:16:38.847Z,5.75
2022-11-20T01:19:12.897Z,5.65
2022-11-20T01:21:45.645Z,5.82
2022-11-20T01:24:17.299Z,5.07
2022-11-20T01:26:48.375Z,5.47
2022-11-20T01:29:23.341Z,5.75
2022-11-20T01:31:53.705Z,5.00
2022-11-20T01:34:23.716Z,5.07
2022-11-20T01:36:53.960Z,3.60
2022-11-20T01:39:25.344Z,4.40
2022-11-20T01:42:13.307Z,5.30
2022-11-20T01:44:56.676Z,5.30
2022-11-20T01:47:37.026Z,4.60
2022-11-20T01:50:15.765Z,4.43
2022-11-20T01:53:00.786Z,3.92
2022-11-20T01:55:33.699Z,4.07
2022-11-20T01:58:03.020Z,4.93
2022-11-20T02:00:32.109Z,6.13
2022-11-20T02:03:05.019Z,4.55
2022-11-20T02:05:35.850Z,5.30
2022-11-20T02:08:06.823Z,5.93
2022-11-20T02:10:35.790Z,4.55
2022-11-20T02:13:23.836Z,4.53
2022-11-20T02:15:53.079Z,4.30
2022-11-20T02:18:22.284Z,5.28
2022-11-20T02:20:58.958Z,5.22
2022-11-20T02:23:33.049Z,4.75
2022-11-20T02:26:05.551Z,5.00
2022-11-20T02:28:34.361Z,4.20
2022-11-20T02:31:02.629Z,3.58
2022-11-20T02:33:30.550Z,3.83
2022-11-20T02:35:58.791Z,3.80
2022-11-20T02:38:26.751Z,3.90
2022-11-20T02:40:55.795Z,3.67
2022-11-20T02:43:24.813Z,4.03
2022-11-20T02:45:53.006Z,3.85
2022-11-20T02:48:20.780Z,3.67
2022-11-20T02:50:50.130Z,3.38
2022-11-20T02:53:17.872Z,3.28
2022-11-20T02:55:46.040Z,3.65
2022-11-20T02:58:13.869Z,3.17
2022-11-20T03:00:42.082Z,3.85
2022-11-20T03:03:09.923Z,3.33
2022-11-20T03:05:39.430Z,2.92
2022-11-20T03:08:07.391Z,3.67
2022-11-20T03:10:35.621Z,3.53
2022-11-20T03:13:03.499Z,3.90
2022-11-20T03:15:32.061Z,3.22
2022-11-20T03:18:00.030Z,3.17
2022-11-20T03:20:28.259Z,3.53
2022-11-20T03:22:56.661Z,3.67
2022-11-20T03:25:25.077Z,3.35
2022-11-20T03:27:53.040Z,3.20
2022-11-20T03:30:21.260Z,3.42
2022-11-20T03:32:49.660Z,3.58
2022-11-20T03:35:17.793Z,3.40
2022-11-20T03:37:47.102Z,3.35
2022-11-20T03:40:15.389Z,3.28
2022-11-20T03:42:46.170Z,3.28
2022-11-20T03:45:19.152Z,3.63
2022-11-20T03:47:47.830Z,2.97
2022-11-20T03:50:16.272Z,2.72
2022-11-20T03:52:44.182Z,2.65
2022-11-20T03:55:12.483Z,2.75
2022-11-20T03:57:40.348Z,4.82
2022-11-20T04:00:10.492Z,2.78
2022-11-20T04:02:38.320Z,3.22
2022-11-20T04:05:07.050Z,2.85
2022-11-20T04:07:35.892Z,3.35
2022-11-20T04:10:04.539Z,3.38
2022-11-20T04:12:35.912Z,3.35
2022-11-20T04:15:04.400Z,2.30
2022-11-20T04:17:32.220Z,2.83
2022-11-20T04:20:01.072Z,3.25
2022-11-20T04:22:29.013Z,3.10
2022-11-20T04:24:57.221Z,3.33
2022-11-20T04:27:25.101Z,3.17
2022-11-20T04:29:53.241Z,2.83
2022-11-20T04:32:21.069Z,3.05
2022-11-20T04:34:49.461Z,3.97
2022-11-20T04:37:18.179Z,3.15
2022-11-20T04:39:47.029Z,3.80
2022-11-20T04:42:30.140Z,3.03
2022-11-20T04:44:59.735Z,3.00
2022-11-20T04:47:27.640Z,3.42
2022-11-20T04:49:55.884Z,3.20
2022-11-20T04:52:23.804Z,2.90
2022-11-20T04:54:54.012Z,3.35
2022-11-20T04:57:21.942Z,3.05
2022-11-20T04:59:50.088Z,3.20
2022-11-20T05:02:18.021Z,2.80
2022-11-20T05:04:46.399Z,3.17
2022-11-20T05:07:14.443Z,3.90
2022-11-20T05:09:43.150Z,4.35
2022-11-20T05:12:11.326Z,4.28
2022-11-20T05:14:39.489Z,4.25
2022-11-20T05:17:07.621Z,3.50
2022-11-20T05:19:36.831Z,3.70
2022-11-20T05:22:06.655Z,3.28
2022-11-20T05:24:35.970Z,3.45
2022-11-20T05:27:03.859Z,3.53
2022-11-20T05:29:32.144Z,3.50
2022-11-20T05:32:00.036Z,3.13
2022-11-20T05:34:28.180Z,3.42
2022-11-20T05:36:55.992Z,3.22
2022-11-20T05:39:24.266Z,3.17
2022-11-20T05:42:12.429Z,3.63
2022-11-20T05:44:43.129Z,4.63
2022-11-20T05:47:11.750Z,22.90
2022-11-20T05:49:39.969Z,9.52
2022-11-20T05:52:07.831Z,5.20
2022-11-20T05:54:37.298Z,5.25
2022-11-20T05:57:06.200Z,3.38
2022-11-20T05:59:34.341Z,2.70
2022-11-20T06:02:02.190Z,4.05
2022-11-20T06:04:30.402Z,3.70
2022-11-20T06:06:58.238Z,2.55
2022-11-20T06:09:26.440Z,3.08
2022-11-20T06:11:54.395Z,6.65
2022-11-20T06:14:22.540Z,5.40
2022-11-20T06:16:50.993Z,6.82
2022-11-20T06:19:19.299Z,3.42
2022-11-20T06:21:50.723Z,4.70
2022-11-20T06:24:19.290Z,5.13
2022-11-20T06:26:47.190Z,3.80
2022-11-20T06:29:15.429Z,4.47
2022-11-20T06:31:43.792Z,5.10
2022-11-20T06:34:12.110Z,4.10
2022-11-20T06:36:41.058Z,4.50
2022-11-20T06:39:09.572Z,3.78
2022-11-20T06:41:38.453Z,3.42
2022-11-20T06:44:06.984Z,4.47
2022-11-20T06:46:35.112Z,4.38
2022-11-20T06:49:03.953Z,2.95
2022-11-20T06:51:31.942Z,3.65
2022-11-20T06:54:02.184Z,3.95
2022-11-20T06:56:30.382Z,3.90
2022-11-20T06:58:59.913Z,4.07
2022-11-20T07:01:28.038Z,3.95
2022-11-20T07:03:56.573Z,3.47
2022-11-20T07:06:24.583Z,4.22
2022-11-20T07:08:54.067Z,6.00
2022-11-20T07:11:22.148Z,4.78
2022-11-20T07:13:52.396Z,9.00
2022-11-20T07:16:20.405Z,7.57
2022-11-20T07:18:50.701Z,10.93
2022-11-20T07:21:19.133Z,5.50
2022-11-20T07:23:48.008Z,5.88
2022-11-20T07:26:16.034Z,3.90
2022-11-20T07:28:47.166Z,3.72
2022-11-20T07:31:19.059Z,3.97
2022-11-20T07:33:49.594Z,3.40
2022-11-20T07:36:17.602Z,4.55
2022-11-20T07:38:45.996Z,6.35
2022-11-20T07:41:14.025Z,5.15
2022-11-20T07:43:45.967Z,3.38
2022-11-20T07:46:13.939Z,4.03
2022-11-20T07:48:42.374Z,4.00
2022-11-20T07:51:10.510Z,2.70
2022-11-20T07:53:38.843Z,4.22
2022-11-20T07:56:07.501Z,2.72
2022-11-20T07:58:35.852Z,10.85
2022-11-20T08:01:06.431Z,5.80
2022-11-20T08:03:34.923Z,4.80
2022-11-20T08:06:03.824Z,8.27
2022-11-20T08:08:33.816Z,6.35
2022-11-20T08:11:21.847Z,4.63
2022-11-20T08:14:08.606Z,4.07
2022-11-20T08:16:36.768Z,4.32
2022-11-20T08:19:05.814Z,3.63
2022-11-20T08:21:38.157Z,2.75
2022-11-20T08:24:09.142Z,2.70
2022-11-20T08:26:39.573Z,3.08
2022-11-20T08:29:08.795Z,2.72
2022-11-20T08:31:37.188Z,2.75
2022-11-20T08:34:25.543Z,2.60
2022-11-20T08:36:53.603Z,3.08
2022-11-20T08:39:22.322Z,3.90
2022-11-20T08:41:50.582Z,3.10
2022-11-20T08:44:18.892Z,4.68
2022-11-20T08:46:48.303Z,4.00
2022-11-20T08:49:17.855Z,3.92
2022-11-20T08:51:46.511Z,3.45
2022-11-20T08:54:15.006Z,3.22
2022-11-20T08:56:43.163Z,2.78
2022-11-20T08:59:36.794Z,2.83
2022-11-20T09:01:59.782Z,3.88
2022-11-20T09:04:28.192Z,3.03
2022-11-20T09:06:56.304Z,3.53
2022-11-20T09:09:25.126Z,3.53
2022-11-20T09:11:54.283Z,3.17
2022-11-20T09:14:22.804Z,2.42
2022-11-20T09:16:50.933Z,2.25
2022-11-20T09:19:34.994Z,2.50
2022-11-20T09:22:04.536Z,2.13
2022-11-20T09:24:33.054Z,3.47
2022-11-20T09:27:04.163Z,2.47
2022-11-20T09:29:32.853Z,2.33
2022-11-20T09:32:00.973Z,2.55
2022-11-20T09:34:29.378Z,1.73
2022-11-20T09:36:58.499Z,1.80
2022-11-20T09:39:28.591Z,1.83
2022-11-20T09:42:18.790Z,1.52
2022-11-20T09:45:00.035Z,2.63
2022-11-20T09:47:43.344Z,4.05
2022-11-20T09:50:51.347Z,2.85
2022-11-20T09:53:38.576Z,5.03
2022-11-20T09:56:12.393Z,2.45
2022-11-20T09:58:53.012Z,3.40
2022-11-20T10:01:31.647Z,3.47
2022-11-20T10:04:15.335Z,3.10
2022-11-20T10:07:30.668Z,2.85
2022-11-20T10:09:56.363Z,2.75
2022-11-20T10:12:50.335Z,2.38
2022-11-20T10:15:29.827Z,2.30
2022-11-20T10:18:12.143Z,2.92
2022-11-20T10:21:05.653Z,2.88
2022-11-20T10:24:04.253Z,2.65
2022-11-20T10:26:59.703Z,3.50
2022-11-20T10:29:35.602Z,13.20
2022-11-20T10:32:12.630Z,3.35
2022-11-20T10:34:59.992Z,3.70
2022-11-20T10:37:30.339Z,2.58
2022-11-20T10:40:26.042Z,3.85
2022-11-20T10:43:01.294Z,3.05
2022-11-20T10:45:41.582Z,5.18
2022-11-20T10:48:16.994Z,4.10
2022-11-20T10:51:01.080Z,4.53
2022-11-20T10:53:52.369Z,3.72
2022-11-20T10:56:26.738Z,4.07
2022-11-20T10:59:27.048Z,3.65
2022-11-20T11:01:55.230Z,3.75
2022-11-20T11:04:42.328Z,6.03
2022-11-20T11:07:32.390Z,3.67
2022-11-20T11:10:01.140Z,4.43
2022-11-20T11:12:30.183Z,3.97
2022-11-20T11:14:58.985Z,5.18
2022-11-20T11:17:30.579Z,10.13
2022-11-20T11:20:17.429Z,3.75
2022-11-20T11:22:50.573Z,3.83
2022-11-20T11:25:53.120Z,3.40
2022-11-20T11:28:26.809Z,3.53
2022-11-20T11:30:55.703Z,3.97
2022-11-20T11:33:27.655Z,3.60
2022-11-20T11:35:58.542Z,3.83
2022-11-20T11:38:41.959Z,2.83
2022-11-20T11:41:27.630Z,4.67
2022-11-20T11:44:36.761Z,4.75
2022-11-20T11:47:07.630Z,5.85
2022-11-20T11:49:36.480Z,5.47
2022-11-20T11:52:18.481Z,7.93
2022-11-20T11:55:01.049Z,6.82
2022-11-20T11:57:42.379Z,9.80
2022-11-20T12:00:15.001Z,8.60
2022-11-20T12:02:45.923Z,7.65
2022-11-20T12:05:27.440Z,7.80
2022-11-20T12:08:14.052Z,8.00
2022-11-20T12:10:48.141Z,9.13
2022-11-20T12:16:02.050Z,12.02
2022-11-20T12:18:30.521Z,12.25
2022-11-20T12:21:24.341Z,11.70
2022-11-20T12:24:03.984Z,11.80
2022-11-20T12:26:50.641Z,10.82
2022-11-20T12:29:21.485Z,12.07
2022-11-20T12:32:19.850Z,11.95
2022-11-20T12:35:11.765Z,11.60
2022-11-20T12:37:46.078Z,13.25
2022-11-20T12:43:41.650Z,11.95
2022-11-20T12:46:12.520Z,11.90
2022-11-20T12:48:56.050Z,12.38
2022-11-20T12:51:43.262Z,11.80
2022-11-20T12:54:32.633Z,11.13
2022-11-20T12:57:27.673Z,11.52
2022-11-20T13:00:08.486Z,10.80
2022-11-20T13:03:00.364Z,10.95
2022-11-20T13:05:47.376Z,12.00
2022-11-20T13:08:29.904Z,14.52
2022-11-20T13:10:58.063Z,14.70
2022-11-20T13:13:57.883Z,13.50
2022-11-20T13:16:39.874Z,16.35
2022-11-20T13:19:13.554Z,15.95
2022-11-20T13:21:52.815Z,14.15
2022-11-20T13:24:20.884Z,14.70
2022-11-20T13:27:00.603Z,14.27
2022-11-20T13:29:28.732Z,14.13
2022-11-20T13:32:23.232Z,14.25
2022-11-20T13:34:58.082Z,14.90
2022-11-20T13:37:30.031Z,15.23
2022-11-20T13:40:10.863Z,14.52
2022-11-20T13:42:52.323Z,14.07
2022-11-20T13:45:27.646Z,14.15
2022-11-20T13:47:58.913Z,14.70
2022-11-20T13:50:39.321Z,15.20
2022-11-20T13:53:32.514Z,16.30
2022-11-20T13:56:43.521Z,15.32
2022-11-20T13:59:41.699Z,14.43
2022-11-20T14:02:19.344Z,14.90
2022-11-20T14:04:51.005Z,14.90
2022-11-20T14:07:21.753Z,13.45
2022-11-20T14:09:56.017Z,12.77
2022-11-20T14:12:33.120Z,12.88
2022-11-20T14:15:01.289Z,13.00
2022-11-20T14:17:36.722Z,12.40
2022-11-20T14:20:13.847Z,11.52
2022-11-20T14:22:52.772Z,13.68
2022-11-20T14:25:26.113Z,13.50
2022-11-20T14:27:55.413Z,12.18
2022-11-20T14:30:30.543Z,13.38
2022-11-20T14:33:03.841Z,13.68
2022-11-20T14:38:05.603Z,12.73
2022-11-20T14:40:37.903Z,13.18
2022-11-20T14:43:23.412Z,13.52
2022-11-20T14:46:01.712Z,12.82
2022-11-20T14:48:42.177Z,13.15
2022-11-20T14:51:29.539Z,13.18
2022-11-20T14:53:57.516Z,12.50
2022-11-20T14:56:26.352Z,12.57
2022-11-20T14:58:59.303Z,12.73
2022-11-20T15:04:09.012Z,13.30
2022-11-20T15:06:39.686Z,12.85
2022-11-20T15:09:15.362Z,13.65
2022-11-20T15:12:04.402Z,13.30
2022-11-20T15:14:33.861Z,13.52
2022-11-20T15:17:02.886Z,13.98
2022-11-20T15:19:30.802Z,13.88
2022-11-20T15:22:00.274Z,13.15
2022-11-20T15:24:28.245Z,14.95
2022-11-20T15:26:56.447Z,13.73
2022-11-20T15:29:25.101Z,15.07
2022-11-20T15:31:55.496Z,14.57
2022-11-20T15:34:23.764Z,15.80
2022-11-20T15:36:52.623Z,15.98
2022-11-20T15:39:20.487Z,16.27
2022-11-20T15:41:48.701Z,15.52
2022-11-20T15:44:16.501Z,23.15
2022-11-20T15:46:46.388Z,16.13
2022-11-20T15:49:19.938Z,15.02
2022-11-20T15:51:50.947Z,14.32
2022-11-20T15:54:24.230Z,15.20
2022-11-20T15:56:55.427Z,17.52
2022-11-20T15:59:23.325Z,16.75
2022-11-20T16:01:51.601Z,15.57
2022-11-20T16:04:19.784Z,18.33
2022-11-20T16:06:48.031Z,14.85
2022-11-20T16:09:15.895Z,16.38
2022-11-20T16:11:44.346Z,38.63
2022-11-20T16:14:31.115Z,137.32
2022-11-20T16:16:59.323Z,128.98
2022-11-20T16:19:27.185Z,51.70
2022-11-20T16:22:01.164Z,28.67
2022-11-20T16:24:31.460Z,18.63
2022-11-20T16:27:00.276Z,17.63
2022-11-20T16:29:28.683Z,16.55
2022-11-20T16:31:58.165Z,16.52
2022-11-20T16:34:26.165Z,15.20
2022-11-20T16:36:54.625Z,16.08
2022-11-20T16:39:24.100Z,16.40
2022-11-20T16:41:52.574Z,18.02
2022-11-20T16:44:21.912Z,18.10
2022-11-20T16:46:50.617Z,17.45
2022-11-20T16:49:18.634Z,18.25
2022-11-20T16:51:47.246Z,19.02
2022-11-20T16:54:20.546Z,18.42
2022-11-20T16:56:51.199Z,16.80
2022-11-20T16:59:19.400Z,17.38
2022-11-20T17:01:47.743Z,18.60
2022-11-20T17:04:16.238Z,20.25
2022-11-20T17:06:45.245Z,22.48
2022-11-20T17:09:14.016Z,21.67
2022-11-20T17:11:43.531Z,21.15
2022-11-20T17:14:12.324Z,22.50
2022-11-20T17:16:40.805Z,22.40
2022-11-20T17:19:09.982Z,24.08
2022-11-20T17:21:41.376Z,24.60
2022-11-20T17:24:12.134Z,25.67
2022-11-20T17:26:42.378Z,28.77
2022-11-20T17:29:18.766Z,28.38
2022-11-20T17:31:47.655Z,29.63
2022-11-20T17:34:16.573Z,29.23
2022-11-20T17:36:46.035Z,26.58
2022-11-20T17:39:15.969Z,26.25
2022-11-20T17:41:44.758Z,24.10
2022-11-20T17:44:13.465Z,21.50
2022-11-20T17:46:42.840Z,19.77
2022-11-20T17:49:10.738Z,19.65
2022-11-20T17:51:39.031Z,19.33
2022-11-20T17:54:09.602Z,19.55
2022-11-20T17:56:56.478Z,20.45
2022-11-20T17:59:24.445Z,21.38
2022-11-20T18:01:52.916Z,21.40
2022-11-20T18:04:21.445Z,22.40
2022-11-20T18:06:51.411Z,21.67
2022-11-20T18:09:19.526Z,21.25
2022-11-20T18:11:47.816Z,21.85
2022-11-20T18:14:26.752Z,20.52
2022-11-20T18:17:01.481Z,19.63
2022-11-20T18:19:33.171Z,18.73
2022-11-20T18:22:04.327Z,18.65
2022-11-20T18:24:33.159Z,18.27
2022-11-20T18:27:01.431Z,18.63
2022-11-20T18:29:31.478Z,20.10
2022-11-20T18:32:00.806Z,21.30
2022-11-20T18:34:29.637Z,22.00
2022-11-20T18:36:59.196Z,19.95
2022-11-20T18:39:27.095Z,21.95
2022-11-20T18:42:14.527Z,22.00
2022-11-20T18:44:51.728Z,24.20
2022-11-20T18:47:32.735Z,23.17
2022-11-20T18:50:02.365Z,22.88
2022-11-20T18:52:35.678Z,21.05
2022-11-20T18:55:05.332Z,21.85
2022-11-20T18:57:34.747Z,21.77
2022-11-20T19:00:08.404Z,21.15
2022-11-20T19:02:42.303Z,23.20
2022-11-20T19:05:14.996Z,26.58
2022-11-20T19:07:43.386Z,38.53
2022-11-20T19:10:11.389Z,28.50
2022-11-20T19:12:39.584Z,23.63
2022-11-20T19:15:07.792Z,25.25
2022-11-20T19:17:36.030Z,22.80
2022-11-20T19:20:04.087Z,25.10
2022-11-20T19:22:32.247Z,28.85
2022-11-20T19:25:00.179Z,26.55
2022-11-20T19:27:28.391Z,26.73
2022-11-20T19:30:03.574Z,26.98
2022-11-20T19:32:33.216Z,29.80
2022-11-20T19:35:01.065Z,29.33
2022-11-20T19:37:29.340Z,26.52
2022-11-20T19:39:59.948Z,23.83
2022-11-20T19:42:28.118Z,24.98
2022-11-20T19:44:56.265Z,23.70
2022-11-20T19:47:35.397Z,25.58
2022-11-20T19:50:13.404Z,23.90
2022-11-20T19:52:42.206Z,23.45
2022-11-20T19:55:11.348Z,28.17
2022-11-20T19:57:39.597Z,25.38
2022-11-20T20:00:08.404Z,24.48
2022-11-20T20:02:37.955Z,23.95
2022-11-20T20:05:06.347Z,22.90
2022-11-20T20:07:34.721Z,22.50
2022-11-20T20:10:02.566Z,24.52
2022-11-20T20:12:31.791Z,22.70
2022-11-20T20:14:59.716Z,22.58
2022-11-20T20:17:28.992Z,23.77
2022-11-20T20:19:57.020Z,24.27
2022-11-20T20:22:25.269Z,23.92
2022-11-20T20:24:53.383Z,24.63
2022-11-20T20:27:22.116Z,23.20
2022-11-20T20:29:52.541Z,23.92
2022-11-20T20:32:21.867Z,22.95
2022-11-20T20:34:49.844Z,22.17
2022-11-20T20:37:18.042Z,23.33
2022-11-20T20:39:46.358Z,25.10
2022-11-20T20:42:14.698Z,25.90
2022-11-20T20:45:02.266Z,26.27
2022-11-20T20:47:41.434Z,24.33
2022-11-20T20:50:12.052Z,23.50
2022-11-20T20:52:40.876Z,24.27
2022-11-20T20:55:11.578Z,26.35
2022-11-20T20:57:43.151Z,29.00
2022-11-20T21:00:11.504Z,27.25
2022-11-20T21:02:39.753Z,28.13
2022-11-20T21:05:08.752Z,26.40
2022-11-20T21:07:59.346Z,27.45
2022-11-20T21:10:32.235Z,24.90
2022-11-20T21:13:02.474Z,23.73
2022-11-20T21:15:30.377Z,24.40
2022-11-20T21:17:58.586Z,24.65
2022-11-20T21:20:46.236Z,24.17
2022-11-20T21:23:15.616Z,24.95
2022-11-20T21:25:43.694Z,24.33
2022-11-20T21:28:15.625Z,25.13
2022-11-20T21:30:47.005Z,24.73
2022-11-20T21:33:15.282Z,22.75
2022-11-20T21:35:43.181Z,22.23
2022-11-20T21:38:11.423Z,23.27
2022-11-20T21:40:39.305Z,21.65
2022-11-20T21:43:08.305Z,22.65
2022-11-20T21:45:36.187Z,22.42
2022-11-20T21:48:04.734Z,22.15
2022-11-20T21:50:35.395Z,21.73
2022-11-20T21:53:03.648Z,22.48
2022-11-20T21:55:31.490Z,23.35
2022-11-20T21:57:59.895Z,20.45
2022-11-20T22:00:27.705Z,21.75
2022-11-20T22:02:55.967Z,21.33
2022-11-20T22:05:23.815Z,21.30
2022-11-20T22:07:53.144Z,22.05
2022-11-20T22:10:21.013Z,20.60
2022-11-20T22:12:49.235Z,20.17
2022-11-20T22:15:33.057Z,20.95
2022-11-20T22:18:14.165Z,21.98
2022-11-20T22:20:42.380Z,23.90
2022-11-20T22:23:11.729Z,22.20
2022-11-20T22:25:39.700Z,23.83
2022-11-20T22:28:07.845Z,22.38
2022-11-20T22:30:35.646Z,22.55
2022-11-20T22:33:06.716Z,19.88
2022-11-20T22:35:38.469Z,20.48
2022-11-20T22:38:08.200Z,20.48
2022-11-20T22:40:36.210Z,21.98
2022-11-20T22:43:04.538Z,19.55
2022-11-20T22:45:32.707Z,21.02
2022-11-20T22:48:01.028Z,19.52
2022-11-20T22:50:29.755Z,20.27
2022-11-20T22:52:58.239Z,20.63
2022-11-20T22:55:26.237Z,19.88
2022-11-20T22:57:54.538Z,20.70
2022-11-20T23:00:22.683Z,19.58
2022-11-20T23:02:51.058Z,19.08
2022-11-20T23:05:19.028Z,19.02
2022-11-20T23:07:47.402Z,18.80
2022-11-20T23:10:15.475Z,18.88
2022-11-20T23:12:43.859Z,20.45
2022-11-20T23:15:11.937Z,18.38
2022-11-20T23:17:40.209Z,20.60
2022-11-20T23:20:10.210Z,19.17
2022-11-20T23:22:39.658Z,19.48
2022-11-20T23:25:08.422Z,18.92
2022-11-20T23:27:38.087Z,17.98
2022-11-20T23:30:06.760Z,19.95
2022-11-20T23:32:36.351Z,17.83
2022-11-20T23:35:04.447Z,19.33
2022-11-20T23:37:32.806Z,18.05
2022-11-20T23:40:00.728Z,19.70
2022-11-20T23:42:29.045Z,22.08
2022-11-20T23:44:57.097Z,19.15
2022-11-20T23:47:24.900Z,16.88
2022-11-20T23:49:53.763Z,17.95
2022-11-20T23:52:23.339Z,21.63
2022-11-20T23:54:53.009Z,17.92
2022-11-20T23:57:20.988Z,17.50
2022-11-20T23:59:50.549Z,18.25
